Time;durP1;ratioP1;P1;durP2;ratioP2;P2;SDS_P1;SDS_P2;PMS_P1;PMS_P2;Temp;Humidity;BMP_temperature;BMP_pressure;BME280_temperature;BME280_humidity;BME280_pressure;Samples;Min_cycle;Max_cycle;Signal;HPM_P1;HPM_P2
2023/01/13 00:01:25;;;;;;;0.80;0.60;;;;;;;;;;5090585;28;20480;-73
2023/01/13 00:03:52;;;;;;;1.27;0.57;;;;;;;;;;5091099;28;20575;-73
2023/01/13 00:06:20;;;;;;;1.43;0.70;;;;;;;;;;5090783;28;20772;-73
2023/01/13 00:08:49;;;;;;;0.70;0.50;;;;;;;;;;5090495;28;20454;-73
2023/01/13 00:11:16;;;;;;;1.03;0.83;;;;;;;;;;5090699;28;20458;-71
2023/01/13 00:13:43;;;;;;;0.90;0.50;;;;;;;;;;5091529;28;20464;-71
2023/01/13 00:16:14;;;;;;;0.97;0.87;;;;;;;;;;5090665;28;20464;-71
2023/01/13 00:18:41;;;;;;;0.70;0.40;;;;;;;;;;5090737;28;20441;-71
2023/01/13 00:21:11;;;;;;;2.17;0.80;;;;;;;;;;5090192;28;20481;-71
2023/01/13 00:23:38;;;;;;;1.30;0.70;;;;;;;;;;5090753;28;20881;-72
2023/01/13 00:26:07;;;;;;;1.70;0.50;;;;;;;;;;5090261;28;20551;-71
2023/01/13 00:28:34;;;;;;;0.70;0.50;;;;;;;;;;5090740;28;20822;-71
2023/01/13 00:31:05;;;;;;;0.70;0.47;;;;;;;;;;5091123;28;20448;-71
2023/01/13 00:33:34;;;;;;;0.90;0.60;;;;;;;;;;5078679;28;20805;-71
2023/01/13 00:36:01;;;;;;;0.70;0.50;;;;;;;;;;5091199;28;20459;-71
2023/01/13 00:38:29;;;;;;;0.90;0.50;;;;;;;;;;5089966;28;20444;-72
2023/01/13 00:40:56;;;;;;;0.90;0.60;;;;;;;;;;5090791;28;20488;-71
2023/01/13 00:43:23;;;;;;;1.10;0.53;;;;;;;;;;5089877;28;20563;-71
2023/01/13 00:45:51;;;;;;;2.50;0.77;;;;;;;;;;5090709;28;20449;-71
2023/01/13 00:48:18;;;;;;;0.70;0.40;;;;;;;;;;5089780;28;20449;-72
2023/01/13 00:50:47;;;;;;;0.70;0.50;;;;;;;;;;5090627;28;20463;-72
2023/01/13 00:53:15;;;;;;;1.27;0.80;;;;;;;;;;5089857;28;20455;-71
2023/01/13 00:55:42;;;;;;;0.67;0.43;;;;;;;;;;5090741;28;20463;-71
2023/01/13 00:58:10;;;;;;;1.00;0.50;;;;;;;;;;5089814;28;20451;-72
2023/01/13 01:00:37;;;;;;;0.80;0.70;;;;;;;;;;5090167;28;20480;-71
2023/01/13 01:03:07;;;;;;;0.73;0.47;;;;;;;;;;5090860;28;20453;-71
2023/01/13 01:05:34;;;;;;;4.90;0.60;;;;;;;;;;5090939;28;20441;-71
2023/01/13 01:08:03;;;;;;;0.70;0.40;;;;;;;;;;5090050;28;20463;-71
2023/01/13 01:10:30;;;;;;;1.83;0.50;;;;;;;;;;5090699;28;20454;-71
2023/01/13 01:12:57;;;;;;;2.50;0.77;;;;;;;;;;5090229;28;20455;-71
2023/01/13 01:15:24;;;;;;;0.80;0.50;;;;;;;;;;5091281;28;20702;-71
2023/01/13 01:17:51;;;;;;;0.60;0.40;;;;;;;;;;5093623;28;20458;-71
2023/01/13 01:20:19;;;;;;;1.70;0.80;;;;;;;;;;5093780;28;20575;-71
2023/01/13 01:22:46;;;;;;;0.80;0.60;;;;;;;;;;5094458;28;20792;-71
2023/01/13 01:25:14;;;;;;;1.40;0.70;;;;;;;;;;5093751;28;20450;-71
2023/01/13 01:27:42;;;;;;;0.60;0.47;;;;;;;;;;5093422;28;20456;-71
2023/01/13 01:30:09;;;;;;;0.70;0.50;;;;;;;;;;5093341;28;20452;-71
2023/01/13 01:32:36;;;;;;;1.30;0.90;;;;;;;;;;5093668;28;20452;-71
2023/01/13 01:35:04;;;;;;;1.10;0.60;;;;;;;;;;5094128;28;20483;-71
2023/01/13 01:37:31;;;;;;;1.10;0.47;;;10.50;1.00;;;;;;5093846;28;20931;-71
2023/01/13 01:39:58;;;;;;;0.90;0.50;;;11.10;1.00;;;;;;5093405;28;20448;-72
2023/01/13 01:45:14;;;;;;;1.00;0.40;;;11.00;1.00;;;;;;5059291;28;20442;-71
2023/01/13 01:47:42;;;;;;;0.70;0.47;;;11.10;1.00;;;;;;5093203;28;20487;-71
2023/01/13 01:50:10;;;;;;;0.77;0.67;;;11.00;1.00;;;;;;5092888;28;20460;-71
2023/01/13 01:52:40;;;;;;;0.70;0.50;;;11.00;1.00;;;;;;5093315;28;20445;-71
2023/01/13 01:55:10;;;;;;;0.90;0.77;;;11.00;1.00;;;;;;5092841;28;20458;-71
2023/01/13 01:57:43;;;;;;;2.87;0.70;;;11.00;1.00;;;;;;5092790;28;20950;-71
2023/01/13 02:00:12;;;;;;;0.80;0.50;;;10.90;1.00;;;;;;5092729;28;20472;-71
2023/01/13 02:02:40;;;;;;;0.60;0.50;;;10.90;1.00;;;;;;5092940;28;20534;-71
2023/01/13 02:05:08;;;;;;;2.47;0.77;;;10.90;1.00;;;;;;5092890;28;20449;-71
2023/01/13 02:07:38;;;;;;;1.13;0.97;;;10.90;1.00;;;;;;5093221;28;20455;-72
2023/01/13 02:10:07;;;;;;;2.13;0.77;;;10.90;1.00;;;;;;5092685;28;21015;-71
2023/01/13 02:12:35;;;;;;;0.60;0.50;;;10.90;1.00;;;;;;5093616;28;20607;-72
2023/01/13 02:15:06;;;;;;;1.20;0.63;;;10.90;1.00;;;;;;5093163;28;20453;-72
2023/01/13 02:17:49;;;;;;;1.10;0.60;;;10.90;1.00;;;;;;5092761;28;20936;-72
2023/01/13 02:20:56;;;;;;;0.80;0.50;;;10.90;1.00;;;;;;5092667;28;20482;-71
2023/01/13 02:27:27;;;;;;;0.70;0.43;;;10.90;1.00;;;;;;5092979;28;20427;-72
2023/01/13 02:33:13;;;;;;;1.20;0.70;;;10.90;1.00;;;;;;5092528;28;20422;-72
2023/01/13 02:35:47;;;;;;;5.43;0.70;;;10.90;1.00;;;;;;5093023;28;20502;-72
2023/01/13 02:38:16;;;;;;;2.23;0.80;;;10.80;1.00;;;;;;5091875;28;20447;-72
2023/01/13 02:40:48;;;;;;;0.60;0.40;;;10.80;1.00;;;;;;5092706;28;20486;-72
2023/01/13 02:46:13;;;;;;;0.70;0.40;;;10.90;1.00;;;;;;5091818;28;20890;-71
2023/01/13 02:48:41;;;;;;;0.80;0.50;;;10.90;1.00;;;;;;5092342;28;20440;-72
2023/01/13 02:51:13;;;;;;;1.30;0.60;;;10.90;1.00;;;;;;5091978;28;20475;-72
2023/01/13 02:53:45;;;;;;;1.00;0.60;;;10.90;1.00;;;;;;5092640;28;20448;-72
2023/01/13 02:56:14;;;;;;;1.10;0.60;;;10.90;1.00;;;;;;5078667;28;20451;-71
2023/01/13 02:58:43;;;;;;;3.47;0.60;;;10.90;1.00;;;;;;5091876;28;20444;-71
2023/01/13 03:01:11;;;;;;;1.93;0.70;;;10.90;1.00;;;;;;5091412;28;20791;-71
2023/01/13 03:03:38;;;;;;;0.87;0.60;;;10.90;1.00;;;;;;5091716;28;20447;-71
2023/01/13 03:06:17;;;;;;;0.60;0.40;;;10.80;53.80;;;;;;5091734;28;20452;-70
2023/01/13 03:08:49;;;;;;;0.80;0.50;;;10.70;99.90;;;;;;5091623;28;20443;-71
2023/01/13 03:11:18;;;;;;;0.80;0.60;;;10.80;99.90;;;;;;5091610;28;20456;-71
2023/01/13 03:13:57;;;;;;;1.63;0.60;;;10.80;99.90;;;;;;5091775;28;20453;-71
2023/01/13 03:16:32;;;;;;;1.17;0.80;;;10.80;99.90;;;;;;5091039;28;20444;-71
2023/01/13 03:19:13;;;;;;;1.97;0.70;;;10.80;99.90;;;;;;5091625;28;20445;-71
2023/01/13 03:21:47;;;;;;;1.43;0.70;;;10.80;92.90;;;;;;5091873;28;20472;-73
2023/01/13 03:24:20;;;;;;;0.60;0.40;;;10.80;91.90;;;;;;5091490;28;20797;-72
2023/01/13 03:26:51;;;;;;;0.60;0.40;;;10.80;99.30;;;;;;5091965;28;20439;-72
2023/01/13 03:29:21;;;;;;;1.30;0.50;;;10.80;53.90;;;;;;5091055;28;20443;-72
2023/01/13 03:32:01;;;;;;;2.17;1.03;;;10.90;12.80;;;;;;5078225;28;20455;-72
2023/01/13 03:34:33;;;;;;;1.70;0.57;;;10.80;32.10;;;;;;5091208;28;20455;-71
2023/01/13 03:37:05;;;;;;;0.60;0.40;;;10.80;23.90;;;;;;5091732;28;20949;-72
2023/01/13 03:39:35;;;;;;;0.70;0.60;;;10.80;31.30;;;;;;5090578;28;20541;-72
2023/01/13 03:42:07;;;;;;;0.80;0.50;;;10.90;31.90;;;;;;5091419;28;21006;-72
2023/01/13 03:44:39;;;;;;;1.00;0.63;;;10.80;42.40;;;;;;5091732;28;20599;-72
2023/01/13 03:47:12;;;;;;;1.67;0.60;;;10.90;25.10;;;;;;5090400;28;20920;-71
2023/01/13 03:49:43;;;;;;;0.80;0.53;;;10.90;30.00;;;;;;5077638;28;20452;-71
2023/01/13 03:52:17;;;;;;;1.63;0.60;;;10.80;59.40;;;;;;5090919;28;20448;-71
2023/01/13 03:54:51;;;;;;;0.60;0.40;;;10.80;70.40;;;;;;5091388;28;20450;-72
2023/01/13 03:57:21;;;;;;;0.70;0.40;;;10.80;99.60;;;;;;5090947;28;20454;-71
2023/01/13 03:59:52;;;;;;;0.77;0.57;;;10.80;99.90;;;;;;5091593;28;20448;-72
2023/01/13 04:02:32;;;;;;;0.93;0.50;;;10.80;93.70;;;;;;5090643;28;20472;-72
2023/01/13 04:05:02;;;;;;;1.10;0.50;;;10.80;99.90;;;;;;5091315;28;20448;-72
2023/01/13 04:07:33;;;;;;;1.07;0.43;;;;;;;;;;5090219;28;20523;-73
2023/01/13 04:10:02;;;;;;;2.20;0.60;;;;;;;;;;5091105;28;20931;-72
2023/01/13 04:12:59;;;;;;;0.87;0.60;;;;;;;;;;5077329;28;20451;-72
2023/01/13 04:15:18;;;;;;;1.67;0.67;;;;;;;;;;5090167;28;20530;-72
2023/01/13 04:17:47;;;;;;;0.70;0.53;;;;;;;;;;5090311;28;20456;-71
2023/01/13 04:20:14;;;;;;;0.60;0.40;;;;;;;;;;5090145;28;20457;-71
2023/01/13 04:22:41;;;;;;;0.97;0.57;;;;;;;;;;5090873;28;20513;-72
2023/01/13 04:25:10;;;;;;;1.07;0.50;;;;;;;;;;5090338;28;20444;-72
2023/01/13 04:27:37;;;;;;;1.57;0.60;;;;;;;;;;5090659;28;20448;-72
2023/01/13 04:30:05;;;;;;;1.03;0.70;;;;;;;;;;5091032;28;20460;-72
2023/01/13 04:32:32;;;;;;;1.80;0.53;;;;;;;;;;5091063;28;20865;-72
2023/01/13 04:35:01;;;;;;;1.60;1.10;;;;;;;;;;5090869;28;20449;-72
2023/01/13 04:37:28;;;;;;;0.70;0.50;;;;;;;;;;5089690;28;20973;-72
2023/01/13 04:39:55;;;;;;;0.60;0.40;;;;;;;;;;5090680;28;20529;-72
2023/01/13 04:42:22;;;;;;;1.00;0.50;;;;;;;;;;5089995;28;20514;-72
2023/01/13 04:44:49;;;;;;;3.03;0.50;;;;;;;;;;5091037;28;20481;-72
2023/01/13 04:47:16;;;;;;;0.70;0.50;;;;;;;;;;5090160;28;20802;-71
2023/01/13 04:49:43;;;;;;;2.83;0.50;;;;;;;;;;5077191;28;20455;-72
2023/01/13 04:52:12;;;;;;;1.90;0.60;;;;;;;;;;5094402;28;20452;-71
2023/01/13 04:54:39;;;;;;;0.90;0.50;;;;;;;;;;5094926;28;20451;-71
2023/01/13 04:57:06;;;;;;;0.70;0.40;;;;;;;;;;5094272;28;20551;-71
2023/01/13 04:59:33;;;;;;;0.70;0.50;;;;;;;;;;5094238;28;20455;-72
2023/01/13 05:02:00;;;;;;;0.83;0.50;;;;;;;;;;5094485;28;20510;-71
2023/01/13 05:04:27;;;;;;;0.60;0.30;;;;;;;;;;5094179;28;20446;-71
2023/01/13 05:06:54;;;;;;;3.00;0.83;;;;;;;;;;5094583;28;20448;-72
2023/01/13 05:09:23;;;;;;;1.10;0.53;;;;;;;;;;5093620;28;20448;-71
2023/01/13 05:17:20;;;;;;;0.60;0.40;;;;;;;;;;5080171;28;20408;-72
2023/01/13 05:19:48;;;;;;;0.70;0.40;;;;;;;;;;5094058;28;20467;-72
2023/01/13 05:27:46;;;;;;;0.70;0.50;;;;;;;;;;5093831;28;20423;-72
2023/01/13 05:30:13;;;;;;;0.60;0.40;;;;;;;;;;5079910;28;20965;-71
2023/01/13 05:32:40;;;;;;;0.70;0.60;;;10.70;99.90;;;;;;5094115;28;20452;-72
2023/01/13 05:35:08;;;;;;;0.70;0.50;;;10.80;99.90;;;;;;5093475;28;20443;-72
2023/01/13 05:37:35;;;;;;;0.70;0.47;;;10.80;99.90;;;;;;5093852;28;20444;-72
2023/01/13 05:45:32;;;;;;;0.80;0.77;;;10.70;99.90;;;;;;5093478;28;20465;-72
2023/01/13 05:47:59;;;;;;;0.60;0.40;;;10.70;99.90;;;;;;5091929;28;20441;-72
2023/01/13 05:50:25;;;;;;;0.80;0.43;;;10.60;99.90;;;;;;5092243;28;20455;-72
2023/01/13 05:52:52;;;;;;;0.80;0.70;;;10.60;99.90;;;;;;5092344;28;20907;-72
2023/01/13 05:55:20;;;;;;;0.80;0.50;;;10.60;99.90;;;;;;5092263;28;20804;-71
2023/01/13 05:57:47;;;;;;;0.70;0.50;;;10.60;99.90;;;;;;5092154;28;20446;-72
2023/01/13 06:00:15;;;;;;;0.73;0.50;;;10.50;99.90;;;;;;5092038;28;20467;-72
2023/01/13 06:02:42;;;;;;;0.80;0.50;;;10.60;1.00;;;;;;5092182;28;20504;-72
2023/01/13 06:05:09;;;;;;;0.60;0.40;;;10.50;99.90;;;;;;5092394;28;20446;-71
2023/01/13 06:07:36;;;;;;;6.20;0.80;;;10.50;1.00;;;;;;5092168;28;20437;-71
2023/01/13 06:10:02;;;;;;;1.00;0.60;;;10.50;99.90;;;;;;5092674;28;20923;-72
2023/01/13 06:12:30;;;;;;;0.60;0.40;;;10.60;99.90;;;;;;5092510;28;20794;-72
2023/01/13 06:14:57;;;;;;;0.70;0.40;;;10.50;99.90;;;;;;5092748;28;20440;-72
2023/01/13 06:17:24;;;;;;;0.60;0.40;;;10.50;99.90;;;;;;5091361;28;20920;-71
2023/01/13 06:19:51;;;;;;;0.67;0.40;;;10.50;99.90;;;;;;5092333;28;21035;-72
2023/01/13 06:22:21;;;;;;;0.70;0.40;;;10.60;99.90;;;;;;5092142;28;20486;-71
2023/01/13 06:24:50;;;;;;;1.30;0.60;;;10.50;99.90;;;;;;5092716;28;20450;-72
2023/01/13 06:27:17;;;;;;;0.90;0.50;;;10.60;99.90;;;;;;5091722;28;20435;-72
2023/01/13 06:29:46;;;;;;;4.10;0.80;;;10.60;99.90;;;;;;5092520;28;20448;-72
2023/01/13 06:32:17;;;;;;;0.60;0.40;;;10.50;99.90;;;;;;5091915;28;20756;-71
2023/01/13 06:34:45;;;;;;;0.67;0.40;;;10.50;99.90;;;;;;5092525;28;20745;-72
2023/01/13 06:37:14;;;;;;;0.70;0.40;;;10.50;99.90;;;;;;5091186;28;20917;-71
2023/01/13 06:39:42;;;;;;;0.90;0.40;;;10.50;99.90;;;;;;5092296;28;20796;-72
2023/01/13 06:44:55;;;;;;;1.57;0.47;;;10.50;99.90;;;;;;5042684;28;1072166;-72
2023/01/13 06:47:22;;;;;;;1.00;0.60;;;10.40;1.00;;;;;;5092122;28;20204;-72
2023/01/13 06:49:49;;;;;;;0.70;0.40;;;10.60;99.90;;;;;;5093335;28;20531;-71
2023/01/13 06:52:16;;;;;;;0.70;0.40;;;10.50;1.00;;;;;;5092339;28;20938;-71
2023/01/13 06:54:42;;;;;;;0.73;0.47;;;10.40;1.00;;;;;;5092923;28;20900;-72
2023/01/13 06:57:09;;;;;;;0.70;0.40;;;10.50;1.00;;;;;;5091975;28;20439;-71
2023/01/13 06:59:36;;;;;;;0.80;0.50;;;10.60;1.00;;;;;;5092948;28;20446;-71
2023/01/13 07:02:04;;;;;;;2.03;0.53;;;10.60;1.00;;;;;;5092703;28;20486;-71
2023/01/13 07:04:31;;;;;;;0.80;0.60;;;10.60;1.00;;;;;;5092956;28;20435;-72
2023/01/13 07:06:58;;;;;;;0.60;0.40;;;10.50;1.00;;;;;;5092694;28;20791;-72
2023/01/13 07:09:25;;;;;;;1.23;0.60;;;10.60;1.00;;;;;;5091560;28;20445;-71
2023/01/13 07:11:51;;;;;;;0.70;0.43;;;10.60;1.00;;;;;;5092482;28;20487;-72
2023/01/13 07:17:04;;;;;;;0.97;0.50;;;10.60;1.00;;;;;;5092190;28;20419;-71
2023/01/13 07:19:31;;;;;;;0.60;0.40;;;10.60;1.00;;;;;;5092834;28;20470;-71
2023/01/13 07:21:58;;;;;;;2.63;0.50;;;10.60;1.00;;;;;;5092325;28;20475;-72
2023/01/13 07:24:25;;;;;;;0.73;0.53;;;10.50;1.00;;;;;;5091793;28;20886;-71
2023/01/13 07:26:52;;;;;;;1.00;0.57;;;10.50;1.00;;;;;;5092294;28;20460;-71
2023/01/13 07:29:19;;;;;;;0.60;0.40;;;10.70;1.00;;;;;;5091559;28;20434;-72
2023/01/13 07:31:45;;;;;;;0.70;0.43;;;10.50;1.00;;;;;;5091839;28;20439;-71
2023/01/13 07:34:14;;;;;;;0.90;0.40;;;10.40;1.00;;;;;;5091480;28;20443;-71
2023/01/13 07:36:40;;;;;;;0.60;0.30;;;10.50;1.00;;;;;;5092214;28;20451;-72
2023/01/13 07:39:07;;;;;;;0.60;0.40;;;10.50;1.00;;;;;;5091078;28;20457;-71
2023/01/13 07:44:18;;;;;;;0.70;0.40;;;10.70;99.90;;;;;;5091308;28;20475;-71
2023/01/13 07:46:45;;;;;;;0.60;0.40;;;10.70;99.90;;;;;;5092157;28;20432;-72
2023/01/13 07:49:13;;;;;;;0.70;0.50;;;10.70;99.90;;;;;;5090586;28;20456;-71
2023/01/13 07:51:40;;;;;;;0.67;0.43;;;10.70;99.90;;;;;;5092136;28;20450;-71
2023/01/13 07:54:07;;;;;;;0.70;0.50;;;10.70;99.90;;;;;;5091225;28;20459;-71
2023/01/13 07:56:34;;;;;;;1.00;0.50;;;10.80;99.90;;;;;;5092200;28;20442;-71
2023/01/13 07:59:01;;;;;;;0.60;0.40;;;10.80;99.90;;;;;;5091502;28;20444;-72
2023/01/13 08:01:28;;;;;;;0.97;0.53;;;10.80;99.90;;;;;;5091391;28;20439;-71
2023/01/13 08:03:57;;;;;;;1.73;0.40;;;10.90;99.90;;;;;;5091575;28;20480;-72
2023/01/13 08:06:26;;;;;;;0.70;0.40;;;10.90;99.90;;;;;;5091428;28;20440;-71
2023/01/13 08:08:54;;;;;;;0.83;0.53;;;11.00;99.90;;;;;;5091439;28;20444;-72
2023/01/13 08:11:21;;;;;;;0.90;0.50;;;11.00;99.90;;;;;;5091386;28;20519;-72
2023/01/13 08:13:47;;;;;;;1.50;0.73;;;11.00;99.90;;;;;;5091342;28;20474;-72
2023/01/13 08:16:15;;;;;;;0.60;0.50;;;11.00;99.90;;;;;;5091216;28;20450;-71
2023/01/13 08:18:42;;;;;;;0.80;0.40;;;11.00;99.90;;;;;;5091017;28;20456;-71
2023/01/13 08:21:12;;;;;;;0.90;0.60;;;11.10;99.90;;;;;;5090861;28;20913;-71
2023/01/13 08:23:41;;;;;;;0.70;0.50;;;11.10;1.00;;;;;;5091555;28;20478;-72
2023/01/13 08:26:09;;;;;;;0.60;0.50;;;;;;;;;;5090717;28;20452;-71
2023/01/13 08:28:36;;;;;;;0.97;0.47;;;11.10;99.90;;;;;;5091185;28;20442;-72
2023/01/13 08:31:04;;;;;;;0.83;0.57;;;;;;;;;;5091432;28;20433;-71
2023/01/13 08:33:31;;;;;;;2.23;0.60;;;11.20;99.90;;;;;;5091587;28;20794;-71
2023/01/13 08:35:58;;;;;;;0.70;0.40;;;11.10;79.50;;;;;;5091403;28;20439;-71
2023/01/13 08:38:25;;;;;;;0.70;0.50;;;11.00;1.00;;;;;;5090306;28;20950;-71
2023/01/13 08:40:53;;;;;;;0.70;0.50;;;10.90;99.90;;;;;;5091269;28;20442;-71
2023/01/13 08:43:20;;;;;;;0.60;0.40;;;;;;;;;;5090685;28;20495;-70
2023/01/13 08:45:55;;;;;;;3.13;0.70;;;;;;;;;;5090906;28;20466;-71
2023/01/13 08:48:23;;;;;;;0.70;0.40;;;;;;;;;;5090321;28;20451;-71
2023/01/13 08:50:50;;;;;;;0.70;0.40;;;;;;;;;;5091018;28;20444;-71
2023/01/13 08:53:17;;;;;;;1.00;0.50;;;;;;;;;;5090620;28;20447;-71
2023/01/13 08:55:44;;;;;;;0.70;0.50;;;;;;;;;;5091189;28;20432;-71
2023/01/13 08:58:13;;;;;;;0.90;0.60;;;;;;;;;;5090108;28;20441;-71
2023/01/13 09:00:40;;;;;;;0.70;0.50;;;;;;;;;;5091196;28;20449;-71
2023/01/13 09:03:08;;;;;;;1.60;0.67;;;;;;;;;;5090504;28;20480;-71
2023/01/13 09:05:35;;;;;;;1.10;0.50;;;;;;;;;;5090772;28;20449;-71
2023/01/13 09:08:02;;;;;;;1.00;0.50;;;;;;;;;;5090809;28;20449;-72
2023/01/13 09:10:30;;;;;;;0.80;0.77;;;;;;;;;;5090987;28;20476;-72
2023/01/13 09:13:11;;;;;;;0.80;0.50;;;;;;;;;;5091149;28;20455;-72
2023/01/13 09:15:40;;;;;;;3.90;0.77;;;;;;;;;;5091069;28;20515;-72
2023/01/13 09:18:07;;;;;;;0.90;0.50;;;;;;;;;;5089865;28;20432;-70
2023/01/13 09:20:34;;;;;;;0.70;0.50;;;;;;;;;;5077562;28;20438;-71
2023/01/13 09:23:01;;;;;;;1.00;0.60;;;;;;;;;;5090889;28;20822;-71
2023/01/13 09:25:28;;;;;;;1.70;1.20;;;;;;;;;;5090333;28;20453;-71
2023/01/13 09:27:56;;;;;;;0.60;0.40;;;;;;;;;;5090352;28;20790;-71
2023/01/13 09:30:23;;;;;;;1.07;0.50;;;;;;;;;;5090315;28;20445;-71
2023/01/13 09:34:58;;;;;;;0.70;0.40;;;;;;;;;;5090427;28;20447;-71
2023/01/13 09:35:38;;;;;;;0.60;0.40;;;;;;;;;;5090645;28;20468;-70
2023/01/13 09:38:06;;;;;;;1.73;0.60;;;;;;;;;;5093456;28;20448;-69
2023/01/13 09:40:33;;;;;;;0.90;0.60;;;;;;;;;;5094789;28;20440;-71
2023/01/13 09:45:50;;;;;;;0.67;0.40;;;;;;;;;;5094316;28;20423;-71
2023/01/13 09:48:20;;;;;;;1.73;0.50;;;;;;;;;;5093296;28;20454;-71
2023/01/13 09:50:57;;;;;;;0.70;0.40;;;;;;;;;;5094329;28;20444;-71
2023/01/13 09:53:27;;;;;;;0.60;0.30;;;;;;;;;;5093598;28;20930;-71
2023/01/13 09:55:55;;;;;;;1.43;0.50;;;;;;;;;;5094281;28;20445;-70
2023/01/13 09:58:23;;;;;;;0.90;0.40;;;;;;;;;;5093414;28;20444;-70
2023/01/13 10:00:59;;;;;;;0.60;0.40;;;;;;;;;;5094195;28;20437;-71
2023/01/13 10:03:28;;;;;;;0.97;0.50;;;;;;;;;;5093357;28;20476;-71
2023/01/13 10:05:58;;;;;;;0.60;0.40;;;;;;;;;;5080342;28;20948;-71
2023/01/13 10:08:27;;;;;;;0.60;0.40;;;;;;;;;;5093099;28;20441;-71
2023/01/13 10:10:55;;;;;;;0.67;0.40;;;;;;;;;;5093974;28;20440;-71
2023/01/13 10:13:23;;;;;;;0.60;0.40;;;;;;;;;;5093353;28;20456;-71
2023/01/13 10:15:56;;;;;;;1.53;0.60;;;;;;;;;;5093967;28;20491;-71
2023/01/13 10:18:26;;;;;;;0.60;0.40;;;;;;;;;;5092604;28;20448;-71
2023/01/13 10:20:58;;;;;;;0.70;0.50;;;;;;;;;;5093763;28;20444;-71
2023/01/13 10:23:39;;;;;;;0.70;0.40;;;;;;;;;;5093196;28;20952;-71
2023/01/13 10:26:11;;;;;;;0.80;0.50;;;;;;;;;;5092878;28;20433;-70
2023/01/13 10:28:39;;;;;;;0.77;0.50;;;;;;;;;;5080002;28;20443;-71
2023/01/13 10:31:11;;;;;;;0.60;0.40;;;;;;;;;;5093022;28;20439;-70
2023/01/13 10:33:38;;;;;;;0.70;0.40;;;;;;;;;;5093589;28;20436;-71
2023/01/13 10:36:13;;;;;;;0.67;0.40;;;;;;;;;;5092823;28;20770;-69
2023/01/13 10:38:41;;;;;;;0.70;0.50;;;;;;;;;;5092814;28;20490;-71
2023/01/13 10:41:17;;;;;;;1.33;0.50;;;;;;;;;;5092768;28;20447;-70
2023/01/13 10:43:45;;;;;;;1.03;0.70;;;;;;;;;;5092804;28;20496;-71
2023/01/13 10:46:14;;;;;;;1.00;0.70;;;;;;;;;;5092728;28;20451;-71
2023/01/13 10:48:42;;;;;;;0.60;0.40;;;;;;;;;;5091166;28;20440;-71
2023/01/13 10:51:20;;;;;;;0.90;0.40;;;;;;;;;;5092547;28;20767;-71
2023/01/13 10:53:50;;;;;;;0.97;0.43;;;;;;;;;;5093391;28;20441;-72
2023/01/13 10:56:19;;;;;;;1.57;0.50;;;;;;;;;;5079617;28;20445;-73
2023/01/13 10:58:46;;;;;;;0.63;0.40;;;;;;;;;;5092572;28;20436;-72
2023/01/13 11:01:24;;;;;;;0.93;0.50;;;;;;;;;;5092497;28;20433;-74
2023/01/13 11:03:51;;;;;;;1.30;0.50;;;;;;;;;;5092802;28;20873;-73
2023/01/13 11:06:23;;;;;;;0.70;0.40;;;;;;;;;;5092366;28;20437;-73
2023/01/13 11:08:54;;;;;;;0.60;0.40;;;;;;;;;;5092538;28;20437;-74
2023/01/13 11:11:29;;;;;;;0.80;0.40;;;;;;;;;;5092513;28;20791;-74
2023/01/13 11:16:46;;;;;;;2.30;0.50;;;;;;;;;;5092247;28;20983;-74
2023/01/13 11:19:16;;;;;;;0.70;0.50;;;;;;;;;;5091973;28;20783;-74
2023/01/13 11:21:49;;;;;;;0.80;0.60;;;;;;;;;;5092478;28;20458;-73
2023/01/13 11:24:19;;;;;;;0.60;0.37;;;;;;;;;;5092429;28;20521;-73
2023/01/13 11:26:52;;;;;;;0.60;0.40;;;;;;;;;;5091779;28;20914;-73
2023/01/13 11:29:25;;;;;;;0.70;0.50;;;;;;;;;;5092190;28;20940;-73
2023/01/13 11:31:54;;;;;;;0.70;0.40;;;;;;;;;;5079133;28;20439;-73
2023/01/13 11:34:28;;;;;;;0.70;0.40;;;;;;;;;;5091744;28;20446;-73
2023/01/13 11:36:58;;;;;;;0.77;0.50;;;;;;;;;;5092056;28;20869;-75
2023/01/13 11:39:27;;;;;;;2.30;0.93;;;;;;;;;;5091427;28;20433;-74
2023/01/13 11:44:45;;;;;;;1.30;0.80;;;;;;;;;;5091788;28;20485;-75
2023/01/13 11:47:13;;;;;;;1.03;0.50;;;;;;;;;;5091247;28;20444;-75
2023/01/13 11:49:44;;;;;;;1.43;0.67;;;;;;;;;;5091887;28;20444;-74
2023/01/13 11:52:16;;;;;;;0.80;0.50;;;;;;;;;;5091497;28;20510;-74
2023/01/13 11:54:55;;;;;;;1.43;0.60;;;;;;;;;;5092084;28;20445;-74
2023/01/13 11:57:37;;;;;;;0.60;0.40;;;;;;;;;;5091142;28;20455;-73
2023/01/13 12:00:17;;;;;;;1.00;0.70;;;;;;;;;;5091752;28;20432;-75
2023/01/13 12:02:49;;;;;;;2.30;0.77;;;;;;;;;;5078421;28;20792;-73
2023/01/13 12:05:23;;;;;;;0.70;0.50;;;;;;;;;;5091624;28;20803;-73
2023/01/13 12:07:55;;;;;;;1.37;0.67;;;;;;;;;;5091227;28;20440;-73
2023/01/13 12:10:30;;;;;;;0.90;0.63;;;;;;;;;;5090990;28;20451;-74
2023/01/13 12:13:02;;;;;;;0.70;0.40;;;;;;;;;;5091781;28;20461;-73
2023/01/13 12:16:03;;;;;;;0.70;0.50;;;;;;;;;;5091508;28;20462;-74
2023/01/13 12:18:39;;;;;;;0.60;0.40;;;;;;;;;;5008936;28;20537;-73
2023/01/13 12:21:19;;;;;;;9.33;1.77;;;;;;;;;;5008873;28;20811;-72
2023/01/13 12:23:52;;;;;;;1.17;0.50;;;;;;;;;;5052788;28;20476;-74
2023/01/13 12:26:19;;;;;;;0.80;0.40;;;;;;;;;;5091189;28;20788;-73
2023/01/13 12:28:49;;;;;;;1.00;0.60;;;;;;;;;;5091132;28;20498;-73
2023/01/13 12:31:17;;;;;;;1.63;0.60;;;;;;;;;;5090820;28;20436;-73
2023/01/13 12:33:59;;;;;;;2.83;0.57;;;;;;;;;;5091347;28;20532;-73
2023/01/13 12:36:29;;;;;;;0.70;0.40;;;;;;;;;;5046798;28;20436;-73
2023/01/13 12:38:59;;;;;;;0.60;0.40;;;;;;;;;;5091127;28;20436;-73
2023/01/13 12:41:31;;;;;;;0.90;0.57;;;;;;;;;;5090780;28;20452;-74
2023/01/13 12:44:16;;;;;;;0.90;0.50;;;;;;;;;;5091344;28;20532;-74
2023/01/13 12:46:51;;;;;;;1.07;0.50;;;;;;;;;;5079709;28;20532;-73
2023/01/13 12:49:20;;;;;;;0.90;0.43;;;;;;;;;;5090536;28;20519;-73
2023/01/13 12:52:06;;;;;;;1.90;0.50;;;;;;;;;;5091333;28;20441;-73
2023/01/13 12:54:52;;;;;;;0.90;0.53;;;;;;;;;;5090951;28;20954;-73
2023/01/13 12:57:21;;;;;;;1.00;0.60;;;;;;;;;;5090020;28;20439;-73
2023/01/13 13:00:03;;;;;;;1.27;0.77;;;;;;;;;;5090992;28;20448;-74
2023/01/13 13:02:35;;;;;;;2.90;0.60;;;;;;;;;;5090296;28;20476;-73
2023/01/13 13:05:21;;;;;;;4.20;0.90;;;;;;;;;;5090768;28;20472;-73
2023/01/13 13:07:50;;;;;;;1.57;0.50;;;;;;;;;;5079657;28;20445;-73
2023/01/13 13:10:19;;;;;;;0.60;0.50;;;;;;;;;;5090425;28;20496;-73
2023/01/13 13:15:40;;;;;;;1.83;0.90;;;;;;;;;;5094856;28;20988;-74
2023/01/13 13:18:22;;;;;;;5.07;0.50;;;;;;;;;;5093468;28;20444;-73
2023/01/13 13:20:54;;;;;;;2.10;0.70;;;;;;;;;;5095087;28;20451;-74
2023/01/13 13:23:29;;;;;;;4.60;0.70;;;;;;;;;;5094328;28;20442;-74
2023/01/13 13:26:00;;;;;;;2.50;0.77;;;;;;;;;;5094927;28;20772;-74
2023/01/13 13:28:34;;;;;;;2.00;1.03;;;10.60;99.90;;;;;;5093840;28;20433;-74
2023/01/13 13:31:20;;;;;;;2.17;0.80;;;;;;;;;;5094960;28;20493;-74
2023/01/13 13:33:59;;;;;;;0.70;0.50;;;;;;;;;;5083279;28;20451;-74
2023/01/13 13:36:36;;;;;;;1.27;0.70;;;;;;;;;;5093807;28;20440;-74
2023/01/13 13:47:38;;;;;;;2.70;1.07;;;10.30;99.90;;;;;;5067558;28;20429;-75
2023/01/13 13:50:13;;;;;;;1.10;0.70;;;10.10;99.90;;;;;;5094249;28;20444;-72
2023/01/13 13:52:43;;;;;;;1.00;0.70;;;10.00;99.90;;;;;;5093985;28;20472;-74
2023/01/13 13:55:17;;;;;;;6.20;1.50;;;10.00;99.90;;;;;;5093562;28;20533;-74
2023/01/13 13:57:46;;;;;;;1.00;0.77;;;10.00;99.90;;;;;;5093519;28;20433;-74
2023/01/13 14:00:25;;;;;;;4.20;0.80;;;9.90;99.90;;;;;;5093418;28;20917;-74
2023/01/13 14:02:54;;;;;;;5.40;1.00;;;;;;;;;;5081895;28;20437;-74
2023/01/13 14:05:23;;;;;;;1.63;0.90;;;;;;;;;;5093241;28;20492;-75
2023/01/13 14:07:51;;;;;;;1.27;0.50;;;;;;;;;;5093679;28;20450;-76
2023/01/13 14:10:20;;;;;;;2.17;0.67;;;;;;;;;;5093197;28;20437;-76
2023/01/13 14:12:47;;;;;;;3.63;0.83;;;;;;;;;;5093830;28;20863;-77
2023/01/13 14:15:30;;;;;;;1.57;0.50;;;;;;;;;;5093253;28;20795;-77
2023/01/13 14:17:57;;;;;;;0.80;0.60;;;;;;;;;;5093499;28;20489;-76
2023/01/13 14:20:24;;;;;;;2.90;0.77;;;;;;;;;;5092763;28;20448;-76
2023/01/13 14:22:52;;;;;;;0.70;0.50;;;;;;;;;;5093572;28;20435;-74
2023/01/13 14:25:33;;;;;;;0.70;0.40;;;;;;;;;;5093046;28;20513;-74
2023/01/13 14:28:11;;;;;;;0.80;0.50;;;;;;;;;;5093342;28;20448;-74
2023/01/13 14:30:40;;;;;;;7.63;1.00;;;;;;;;;;5093738;28;20783;-74
2023/01/13 14:33:07;;;;;;;1.03;0.70;;;;;;;;;;5092803;28;20453;-74
2023/01/13 14:35:34;;;;;;;1.93;0.50;;;;;;;;;;5093775;28;20443;-74
2023/01/13 14:38:03;;;;;;;0.80;0.70;;;;;;;;;;5093104;28;20449;-74
2023/01/13 14:40:46;;;;;;;1.13;0.60;;;;;;;;;;5093203;28;20830;-74
2023/01/13 14:43:17;;;;;;;0.90;0.50;;;;;;;;;;5079690;28;20566;-74
2023/01/13 14:45:55;;;;;;;1.00;0.57;;;;;;;;;;5092982;28;20560;-73
2023/01/13 14:48:22;;;;;;;0.70;0.50;;;;;;;;;;5092357;28;20442;-73
2023/01/13 14:50:49;;;;;;;1.37;0.70;;;;;;;;;;5093381;28;20836;-74
2023/01/13 14:53:27;;;;;;;0.83;0.83;;;;;;;;;;5092766;28;20441;-73
2023/01/13 14:55:54;;;;;;;1.27;0.77;;;;;;;;;;5093159;28;20441;-73
2023/01/13 14:58:25;;;;;;;0.70;0.40;;;;;;;;;;5092318;28;20463;-73
2023/01/13 15:01:13;;;;;;;0.87;0.50;;;;;;;;;;5092930;28;20451;-73
2023/01/13 15:03:41;;;;;;;0.60;0.40;;;;;;;;;;5092711;28;20445;-72
2023/01/13 15:06:21;;;;;;;2.30;0.73;;;;;;;;;;5092397;28;20443;-73
2023/01/13 15:08:49;;;;;;;1.10;0.53;;;;;;;;;;5092712;28;20917;-73
2023/01/13 15:11:20;;;;;;;0.80;0.60;;;;;;;;;;5092351;28;20447;-73